Longs, SC

10:58 AM EDT on September 01, 2014 (GMT -0400)
Grand Strand | Change Station
CLOSE
Current Station
Airport
Location: North Myrtle Beach,
Elevation: 33 ft
Nearby Weather Stations
Active Advisory: Special Statement

Elev 33 ft 33.81 °N, 78.72 °W | Updated 1 hour ago

Partly Cloudy
Partly Cloudy
85 °F
Feels Like 93 °F
N
5
Wind Variable Wind from West

Today
High -- | Low -- °F
--% Chance of Precip.
Yesterday
High -- | Low -- °F
Precip. -- in
6:48 AM 7:40 PM
Waxing Crescent, 41% visible
Pressure 30.12 in
Visibility 10.0 miles
Clouds Few 1500 ft
Heat Index 93 °F
Dew Point 75 °F
Humidity 72%
Rainfall 0.00 in
Snow Depth Not available.
UV 5 out of 12
Pollen 8.70 out of 12
Air Quality Not available.
Flu Activity Not available.
METAR KCRE 011353Z 28004KT 10SM FEW015 29/24 A3012 RMK AO2 SLP199 T02940239

More Conditions Fewer Conditions

Pressure 30.12 in
Visibility 10.0 miles
Clouds Few 1500 ft
Heat Index 93 °F
Dew Point 75 °F
Humidity 72%
Rainfall 0.00 in
Snow Depth Not available.
UV 5 out of 12
Pollen 8.70 out of 12
Air Quality Not available.
Flu Activity Not available.
METAR KCRE 011353Z 28004KT 10SM FEW015 29/24 A3012 RMK AO2 SLP199 T02940239

More Conditions Fewer Conditions

10-Day Weather Forecast

Almanac

Astronomy

Sep. 01, 2014 Rise Set
Actual Time 6:48 AM EDT 7:40 PM EDT
Civil Twilight 6:23 AM EDT 8:05 PM EDT
Nautical Twilight 5:53 AM EDT 8:35 PM EDT
Astronomical Twilight 5:22 AM EDT 9:06 PM EDT
Moon 1:13 PM EDT 11:59 PM EDT
Length of Visible Light 13h 42m
Length of Day
12h 51m
Tomorrow will be 2m 0s shorter.
Waxing Crescent, 41% of the Moon is Illuminated
Today
Waxing Crescent
Sep 2
First Quarter
Sep 8
Full
Sep 15
Last Quarter
Sep 24
New

Today's Extremes

State Highs State Lows

Community

WunderPhotos

Upload Photos

1,749,253 photos uploaded!

Nearby

Snow Depth

Station Depth Elevation
No new snow has been reported.

Earthquake Activity

City Distance Mag. Time & Date
No recent earthquake activity has been reported nearby.
Minimum magnitude displayed is 2.5.

Coastal Water Temperatures

Place Temperature
Springmaid Pier, SC 82.9 °F

Nearby Weather Stations